createdAt,value
2023-04-26T00:01:14.850Z,98486.09
2023-04-26T00:04:17.357Z,98487.34
2023-04-26T00:07:20.214Z,98498.31
2023-04-26T00:10:22.487Z,98493.28
2023-04-26T00:13:24.682Z,98497.31
2023-04-26T00:16:26.956Z,98505.22
2023-04-26T00:19:29.239Z,98506.28
2023-04-26T00:22:31.544Z,98510.75
2023-04-26T00:25:33.743Z,98509.69
2023-04-26T00:28:35.992Z,98508.13
2023-04-26T00:31:38.184Z,98516.09
2023-04-26T00:34:40.522Z,98516.94
2023-04-26T00:37:42.820Z,98519.56
2023-04-26T00:40:45.179Z,98523.06
2023-04-26T00:43:47.373Z,98523.88
2023-04-26T00:46:50.727Z,98526.53
2023-04-26T00:49:53.321Z,98531.81
2023-04-26T00:52:56.166Z,98538.31
2023-04-26T00:55:59.078Z,98538.31
2023-04-26T00:59:01.479Z,98534.47
2023-04-26T01:02:04.337Z,98540.34
2023-04-26T01:05:07.005Z,98541.38
2023-04-26T01:08:09.467Z,98545.03
2023-04-26T01:11:12.007Z,98541.38
2023-04-26T01:14:16.199Z,98543.22
2023-04-26T01:17:20.137Z,98544.84
2023-04-26T01:20:22.615Z,98551.56
2023-04-26T01:23:24.836Z,98542.38
2023-04-26T01:26:27.285Z,98545.25
2023-04-26T01:29:29.584Z,98544.44
2023-04-26T01:32:31.783Z,98551.13
2023-04-26T01:35:34.083Z,98551.34
2023-04-26T01:38:36.632Z,98551.94
2023-04-26T01:41:39.093Z,98565.56
2023-04-26T01:44:41.350Z,98570.44
2023-04-26T01:47:43.919Z,98567.59
2023-04-26T01:50:46.181Z,98576.75
2023-04-26T01:53:48.415Z,98572.28
2023-04-26T01:56:50.816Z,98579.22
2023-04-26T01:59:54.292Z,98581.41
2023-04-26T02:02:57.229Z,98585.28
2023-04-26T02:05:59.443Z,98582.63
2023-04-26T02:09:01.669Z,98580.81
2023-04-26T02:12:04.220Z,98584.88
2023-04-26T02:15:07.877Z,98585.28
2023-04-26T02:18:11.634Z,98590.34
2023-04-26T02:21:13.965Z,98590.97
2023-04-26T02:24:16.273Z,98593.00
2023-04-26T02:27:19.105Z,98591.78
2023-04-26T02:30:21.412Z,98596.84
2023-04-26T02:33:23.594Z,98598.87
2023-04-26T02:36:27.354Z,98594.41
2023-04-26T02:39:29.605Z,98591.78
2023-04-26T02:42:32.029Z,98590.16
2023-04-26T02:45:34.254Z,98583.84
2023-04-26T02:48:36.925Z,98588.31
2023-04-26T02:51:39.207Z,98582.41
2023-04-26T02:54:41.403Z,98592.53
2023-04-26T02:57:43.610Z,98596.03
2023-04-26T03:00:47.769Z,98599.44
2023-04-26T03:03:50.152Z,98600.25
2023-04-26T03:06:52.417Z,98600.47
2023-04-26T03:09:54.624Z,98611.47
2023-04-26T03:12:56.961Z,98616.56
2023-04-26T03:15:59.555Z,98625.50
2023-04-26T03:19:01.814Z,98637.06
2023-04-26T03:22:04.035Z,98637.44
2023-04-26T03:25:07.788Z,98637.44
2023-04-26T03:28:10.005Z,98637.41
2023-04-26T03:31:12.216Z,98640.69
2023-04-26T03:34:14.431Z,98647.16
2023-04-26T03:37:16.645Z,98657.31
2023-04-26T03:40:18.870Z,98658.53
2023-04-26T03:43:21.152Z,98661.72
2023-04-26T03:46:23.512Z,98670.44
2023-04-26T03:49:25.745Z,98669.59
2023-04-26T03:52:28.010Z,98676.91
2023-04-26T03:55:30.244Z,98676.25
2023-04-26T03:58:32.494Z,98682.81
2023-04-26T04:01:34.697Z,98686.44
2023-04-26T04:04:37.482Z,98687.28
2023-04-26T04:07:39.756Z,98695.03
2023-04-26T04:10:42.788Z,98685.50
2023-04-26T04:13:44.968Z,98690.50
2023-04-26T04:16:47.188Z,98690.94
2023-04-26T04:19:49.435Z,98687.28
2023-04-26T04:22:51.737Z,98691.34
2023-04-26T04:25:53.946Z,98703.56
2023-04-26T04:28:56.210Z,98699.00
2023-04-26T04:31:58.480Z,98703.22
2023-04-26T04:35:01.027Z,98702.81
2023-04-26T04:38:03.400Z,98703.56
2023-04-26T04:41:05.703Z,98709.66
2023-04-26T04:44:07.948Z,98707.91
2023-04-26T04:47:10.175Z,98713.03
2023-04-26T04:50:12.346Z,98714.09
2023-04-26T04:53:14.521Z,98729.13
2023-04-26T04:56:18.433Z,98733.88
2023-04-26T04:59:20.732Z,98738.97
2023-04-26T05:02:23.031Z,98736.03
2023-04-26T05:05:25.426Z,98739.72
2023-04-26T05:08:27.649Z,98747.19
2023-04-26T05:11:30.137Z,98749.03
2023-04-26T05:14:32.420Z,98757.53
2023-04-26T05:17:34.970Z,98763.81
2023-04-26T05:20:37.310Z,98764.63
2023-04-26T05:23:39.537Z,98768.63
2023-04-26T05:26:42.024Z,98770.03
2023-04-26T05:29:44.307Z,98775.16
2023-04-26T05:32:46.648Z,98773.97
2023-04-26T05:35:49.297Z,98762.88
2023-04-26T05:38:51.498Z,98774.72
2023-04-26T05:41:53.766Z,98772.06
2023-04-26T05:44:59.287Z,98773.63
2023-04-26T05:48:01.608Z,98781.72
2023-04-26T05:51:03.975Z,98776.84
2023-04-26T05:54:06.209Z,98782.41
2023-04-26T05:57:08.473Z,98781.19
2023-04-26T06:00:12.529Z,98790.19
2023-04-26T06:03:15.053Z,98786.16
2023-04-26T06:06:18.535Z,98797.16
2023-04-26T06:09:20.852Z,98793.16
2023-04-26T06:12:23.166Z,98802.09
2023-04-26T06:15:25.508Z,98793.41
2023-04-26T06:18:27.794Z,98794.00
2023-04-26T06:21:30.065Z,98797.59
2023-04-26T06:24:32.308Z,98791.75
2023-04-26T06:27:34.529Z,98804.50
2023-04-26T06:30:36.753Z,98800.44
2023-04-26T06:33:38.997Z,98805.53
2023-04-26T06:36:41.213Z,98804.31
2023-04-26T06:39:43.424Z,98805.34
2023-04-26T06:42:45.997Z,98802.75
2023-04-26T06:45:48.477Z,98815.44
2023-04-26T06:48:54.570Z,98812.97
2023-04-26T06:51:56.907Z,98820.37
2023-04-26T06:55:03.231Z,98820.28
2023-04-26T06:58:05.764Z,98817.56
2023-04-26T07:01:08.670Z,98819.87
2023-04-26T07:04:11.344Z,98818.47
2023-04-26T07:07:14.580Z,98815.66
2023-04-26T07:10:16.873Z,98815.81
2023-04-26T07:13:19.087Z,98821.13
2023-04-26T07:16:21.721Z,98820.56
2023-04-26T07:19:24.127Z,98818.84
2023-04-26T07:22:26.336Z,98817.06
2023-04-26T07:25:28.507Z,98810.22
2023-04-26T07:28:31.713Z,98827.78
2023-04-26T07:31:34.133Z,98831.53
2023-04-26T07:34:36.418Z,98846.72
2023-04-26T07:37:38.633Z,98845.56
2023-04-26T07:40:41.400Z,98846.47
2023-04-26T07:43:43.715Z,98833.34
2023-04-26T07:46:46.119Z,98851.81
2023-04-26T07:49:53.354Z,98861.41
2023-04-26T07:52:55.533Z,98864.19
2023-04-26T07:55:57.744Z,98866.00
2023-04-26T07:59:00.013Z,98871.94
2023-04-26T08:02:02.239Z,98872.31
2023-04-26T08:05:05.689Z,98870.69
2023-04-26T08:08:08.122Z,98875.47
2023-04-26T08:11:10.800Z,98879.81
2023-04-26T08:14:13.018Z,98879.34
2023-04-26T08:17:15.327Z,98888.94
2023-04-26T08:20:18.174Z,98888.72
2023-04-26T08:23:20.358Z,98887.97
2023-04-26T08:26:22.638Z,98896.31
2023-04-26T08:29:27.027Z,98903.50
2023-04-26T08:32:29.277Z,98916.56
2023-04-26T08:35:31.486Z,98904.56
2023-04-26T08:38:33.763Z,98906.03
2023-04-26T08:41:37.332Z,98905.38
2023-04-26T08:44:41.813Z,98905.25
2023-04-26T08:47:47.776Z,98905.19
2023-04-26T08:50:50.773Z,98905.50
2023-04-26T08:53:54.116Z,98904.41
2023-04-26T08:56:59.042Z,98915.97
2023-04-26T09:00:05.548Z,98910.13
2023-04-26T09:03:07.960Z,98913.78
2023-04-26T09:06:11.121Z,98921.22
2023-04-26T09:09:13.929Z,98929.34
2023-04-26T09:12:19.457Z,98931.06
2023-04-26T09:15:23.384Z,98912.53
2023-04-26T09:18:25.672Z,98924.97
2023-04-26T09:21:30.021Z,98915.38
2023-04-26T09:24:52.378Z,98906.56
2023-04-26T09:27:54.685Z,98928.19
2023-04-26T09:30:56.938Z,98932.78
2023-04-26T09:34:02.091Z,98913.34
2023-04-26T09:37:04.300Z,98910.53
2023-04-26T09:40:18.521Z,98925.25
2023-04-26T09:43:22.161Z,98909.56
2023-04-26T09:46:24.987Z,98911.81
2023-04-26T09:49:32.084Z,98920.13
2023-04-26T09:52:43.348Z,98922.91
2023-04-26T09:55:45.620Z,98908.59
2023-04-26T09:58:47.771Z,98914.03
2023-04-26T10:01:50.056Z,98923.06
2023-04-26T10:04:54.707Z,98905.13
2023-04-26T10:07:57.339Z,98912.91
2023-04-26T10:11:02.257Z,98913.91
2023-04-26T10:14:04.583Z,98904.22
2023-04-26T10:17:07.037Z,98914.19
2023-04-26T10:20:13.141Z,98905.84
2023-04-26T10:23:25.461Z,98919.50
2023-04-26T10:27:06.478Z,98934.87
2023-04-26T10:30:09.800Z,98920.38
2023-04-26T10:33:13.956Z,98922.16
2023-04-26T10:36:17.014Z,98926.97
2023-04-26T10:39:21.948Z,98922.53
2023-04-26T10:42:30.333Z,98922.94
2023-04-26T10:45:32.746Z,98924.88
2023-04-26T10:48:34.950Z,98923.91
2023-04-26T10:51:37.241Z,98913.47
2023-04-26T10:54:53.389Z,98934.25
2023-04-26T10:57:57.417Z,98930.31
2023-04-26T11:01:13.569Z,98936.06
2023-04-26T11:04:16.615Z,98925.28
2023-04-26T11:07:37.070Z,98924.22
2023-04-26T11:10:39.368Z,98927.59
2023-04-26T11:13:42.923Z,98914.91
2023-04-26T11:16:46.154Z,98909.44
2023-04-26T11:19:48.370Z,98922.75
2023-04-26T11:22:51.668Z,98924.53
2023-04-26T11:25:55.088Z,98916.38
2023-04-26T11:28:57.482Z,98921.22
2023-04-26T11:31:59.794Z,98935.59
2023-04-26T11:35:02.263Z,98913.69
2023-04-26T11:38:08.210Z,98926.97
2023-04-26T11:41:11.430Z,98927.16
2023-04-26T11:44:13.761Z,98934.00
2023-04-26T11:47:16.102Z,98933.87
2023-04-26T11:50:18.945Z,98913.25
2023-04-26T11:53:21.518Z,98928.03
2023-04-26T11:56:25.386Z,98922.28
2023-04-26T11:59:29.593Z,98938.19
2023-04-26T12:02:31.967Z,98932.50
2023-04-26T12:05:34.600Z,98935.88
2023-04-26T12:08:36.855Z,98942.06
2023-04-26T12:11:39.787Z,98945.88
2023-04-26T12:14:42.039Z,98936.06
2023-04-26T12:17:54.587Z,98933.37
2023-04-26T12:20:58.673Z,98931.59
2023-04-26T12:24:01.578Z,98929.00
2023-04-26T12:27:06.666Z,98921.66
2023-04-26T12:30:09.477Z,98927.94
2023-04-26T12:33:17.052Z,98921.59
2023-04-26T12:36:19.926Z,98939.38
2023-04-26T12:39:22.114Z,98930.44
2023-04-26T12:42:24.331Z,98945.66
2023-04-26T12:45:29.596Z,98947.72
2023-04-26T12:48:32.028Z,98951.72
2023-04-26T12:51:34.442Z,98949.94
2023-04-26T12:54:37.345Z,98949.37
2023-04-26T12:57:41.864Z,98946.84
2023-04-26T13:00:59.707Z,98947.22
2023-04-26T13:04:04.766Z,98945.81
2023-04-26T13:07:07.431Z,98940.94
2023-04-26T13:10:12.963Z,98942.44
2023-04-26T13:13:16.043Z,98935.00
2023-04-26T13:16:18.429Z,98948.59
2023-04-26T13:19:20.711Z,98965.03
2023-04-26T13:22:22.983Z,98961.88
2023-04-26T13:25:25.169Z,98974.25
2023-04-26T13:28:27.335Z,98965.09
2023-04-26T13:31:29.607Z,98966.94
2023-04-26T13:34:32.140Z,98967.25
2023-04-26T13:37:34.464Z,98969.53
2023-04-26T13:40:38.990Z,98977.13
2023-04-26T13:43:41.312Z,98964.22
2023-04-26T13:46:43.562Z,98970.22
2023-04-26T13:49:45.819Z,98969.47
2023-04-26T13:52:50.851Z,98979.16
2023-04-26T13:55:53.083Z,98982.13
2023-04-26T13:58:56.491Z,98986.03
2023-04-26T14:01:59.424Z,98983.00
2023-04-26T14:05:02.148Z,98990.38
2023-04-26T14:08:05.298Z,98995.19
2023-04-26T14:11:08.168Z,98991.69
2023-04-26T14:14:11.061Z,98987.56
2023-04-26T14:17:13.682Z,98989.81
2023-04-26T14:20:16.053Z,98988.19
2023-04-26T14:23:18.275Z,98979.41
2023-04-26T14:26:20.613Z,98979.25
2023-04-26T14:29:22.817Z,98987.78
2023-04-26T14:32:25.056Z,98989.53
2023-04-26T14:35:27.318Z,98996.69
2023-04-26T14:38:29.578Z,98991.81
2023-04-26T14:41:31.711Z,98998.00
2023-04-26T14:44:33.950Z,99000.06
2023-04-26T14:47:36.527Z,98997.34
2023-04-26T14:50:38.863Z,99005.41
2023-04-26T14:53:41.419Z,98988.09
2023-04-26T14:56:43.610Z,98995.87
2023-04-26T14:59:45.801Z,98994.56
2023-04-26T15:02:48.167Z,98998.81
2023-04-26T15:05:50.833Z,99014.22
2023-04-26T15:08:53.057Z,99018.50
2023-04-26T15:11:55.367Z,99015.78
2023-04-26T15:14:57.666Z,99017.00
2023-04-26T15:18:00.042Z,99020.50
2023-04-26T15:21:02.398Z,99019.69
2023-04-26T15:24:05.080Z,99019.38
2023-04-26T15:27:07.344Z,99036.12
2023-04-26T15:30:09.879Z,99030.81
2023-04-26T15:33:12.919Z,99032.06
2023-04-26T15:36:16.436Z,99030.84
2023-04-26T15:39:18.633Z,99034.50
2023-04-26T15:42:20.817Z,99028.16
2023-04-26T15:45:23.036Z,99039.00
2023-04-26T15:48:26.318Z,99034.25
2023-04-26T15:51:28.636Z,99029.22
2023-04-26T15:54:30.948Z,99029.06
2023-04-26T15:57:34.260Z,99028.47
2023-04-26T16:00:36.704Z,99034.88
2023-04-26T16:03:39.162Z,99039.84
2023-04-26T16:06:42.167Z,99026.59
2023-04-26T16:09:45.406Z,99030.97
2023-04-26T16:12:48.060Z,99036.34
2023-04-26T16:15:50.338Z,99031.06
2023-04-26T16:18:52.615Z,99034.75
2023-04-26T16:21:54.916Z,99043.72
2023-04-26T16:24:58.818Z,99046.00
2023-04-26T16:28:01.043Z,99052.72
2023-04-26T16:31:03.291Z,99052.94
2023-04-26T16:34:05.587Z,99043.94
2023-04-26T16:37:07.912Z,99060.88
2023-04-26T16:40:11.540Z,99059.25
2023-04-26T16:43:14.484Z,99056.81
2023-04-26T16:46:16.909Z,99059.88
2023-04-26T16:49:19.330Z,99062.16
2023-04-26T16:52:22.016Z,99075.22
2023-04-26T16:55:24.407Z,99059.09
2023-04-26T16:58:27.056Z,99065.22
2023-04-26T17:01:29.348Z,99070.91
2023-04-26T17:04:31.749Z,99084.19
2023-04-26T17:07:36.140Z,99082.56
2023-04-26T17:10:38.719Z,99082.16
2023-04-26T17:13:41.164Z,99088.09
2023-04-26T17:16:43.717Z,99084.59
2023-04-26T17:19:46.012Z,99086.44
2023-04-26T17:22:48.426Z,99094.00
2023-04-26T17:25:51.528Z,99101.94
2023-04-26T17:28:56.241Z,99100.72
2023-04-26T17:31:58.644Z,99102.97
2023-04-26T17:35:01.011Z,99103.97
2023-04-26T17:38:03.594Z,99105.19
2023-04-26T17:41:05.940Z,99112.13
2023-04-26T17:44:08.107Z,99113.78
2023-04-26T17:47:10.278Z,99117.84
2023-04-26T17:50:12.637Z,99120.25
2023-04-26T17:53:14.854Z,99121.69
2023-04-26T17:56:17.608Z,99121.47
2023-04-26T17:59:19.787Z,99127.91
2023-04-26T18:02:22.112Z,99135.25
2023-04-26T18:05:25.054Z,99137.69
2023-04-26T18:08:27.370Z,99144.97
2023-04-26T18:11:29.617Z,99140.91
2023-04-26T18:14:32.161Z,99150.00
2023-04-26T18:17:34.454Z,99152.41
2023-04-26T18:20:36.924Z,99150.97
2023-04-26T18:23:39.703Z,99154.63
2023-04-26T18:26:41.897Z,99153.63
2023-04-26T18:29:44.158Z,99157.88
2023-04-26T18:32:46.438Z,99164.09
2023-04-26T18:35:49.394Z,99165.84
2023-04-26T18:38:51.608Z,99174.19
2023-04-26T18:41:53.843Z,99171.13
2023-04-26T18:45:02.059Z,99181.06
2023-04-26T18:48:04.617Z,99175.66
2023-04-26T18:51:07.133Z,99185.37
2023-04-26T18:54:11.655Z,99195.56
2023-04-26T18:57:14.864Z,99187.00
2023-04-26T19:00:17.689Z,99190.78
2023-04-26T19:03:20.327Z,99194.31
2023-04-26T19:06:23.194Z,99193.37
2023-04-26T19:09:25.838Z,99201.31
2023-04-26T19:12:28.508Z,99201.75
2023-04-26T19:15:31.148Z,99198.59
2023-04-26T19:18:33.681Z,99200.28
2023-04-26T19:21:36.243Z,99202.78
2023-04-26T19:24:38.438Z,99207.41
2023-04-26T19:27:41.193Z,99203.44
2023-04-26T19:30:43.751Z,99206.16
2023-04-26T19:33:46.230Z,99206.41
2023-04-26T19:36:48.884Z,99213.81
2023-04-26T19:39:51.460Z,99215.59
2023-04-26T19:42:53.984Z,99218.69
2023-04-26T19:45:56.469Z,99218.19
2023-04-26T19:48:58.768Z,99218.09
2023-04-26T19:52:01.802Z,99226.78
2023-04-26T19:55:04.352Z,99224.88
2023-04-26T19:58:07.438Z,99226.25
2023-04-26T20:01:10.241Z,99221.88
2023-04-26T20:04:12.919Z,99231.41
2023-04-26T20:07:15.598Z,99236.88
2023-04-26T20:10:17.844Z,99238.13
2023-04-26T20:13:20.380Z,99241.94
2023-04-26T20:16:22.901Z,99249.78
2023-04-26T20:19:25.391Z,99251.66
2023-04-26T20:22:27.727Z,99256.66
2023-04-26T20:25:30.271Z,99254.13
2023-04-26T20:28:32.691Z,99254.78
2023-04-26T20:31:35.208Z,99255.91
2023-04-26T20:34:37.617Z,99255.91
2023-04-26T20:37:40.080Z,99260.88
2023-04-26T20:40:42.617Z,99255.25
2023-04-26T20:43:44.873Z,99253.59
2023-04-26T20:46:47.174Z,99256.59
2023-04-26T20:49:49.607Z,99258.41
2023-04-26T20:52:52.473Z,99258.91
2023-04-26T20:55:54.792Z,99259.94
2023-04-26T20:58:57.711Z,99260.97
2023-04-26T21:02:00.765Z,99259.53
2023-04-26T21:05:04.722Z,99256.22
2023-04-26T21:08:06.931Z,99255.53
2023-04-26T21:11:09.163Z,99265.44
2023-04-26T21:14:13.657Z,99260.28
2023-04-26T21:17:16.056Z,99264.75
2023-04-26T21:20:18.370Z,99265.44
2023-04-26T21:23:20.920Z,99266.41
2023-04-26T21:26:23.099Z,99252.03
2023-04-26T21:29:25.456Z,99262.06
2023-04-26T21:32:27.737Z,99262.53
2023-04-26T21:35:29.963Z,99266.53
2023-04-26T21:38:32.227Z,99265.56
2023-04-26T21:41:34.401Z,99269.78
2023-04-26T21:44:36.712Z,99277.75
2023-04-26T21:47:38.945Z,99273.16
2023-04-26T21:50:41.274Z,99276.31
2023-04-26T21:53:43.846Z,99272.38
2023-04-26T21:56:46.205Z,99278.78
2023-04-26T21:59:48.479Z,99280.56
2023-04-26T22:02:51.527Z,99278.72
2023-04-26T22:05:53.899Z,99290.88
2023-04-26T22:08:56.296Z,99295.81
2023-04-26T22:11:58.543Z,99302.72
2023-04-26T22:15:00.909Z,99296.75
2023-04-26T22:18:03.195Z,99305.06
2023-04-26T22:21:05.533Z,99307.41
2023-04-26T22:24:08.797Z,99311.31
2023-04-26T22:27:11.457Z,99305.75
2023-04-26T22:30:24.750Z,99307.56
2023-04-26T22:33:27.481Z,99308.19
2023-04-26T22:36:29.894Z,99315.28
2023-04-26T22:39:32.097Z,99320.19
2023-04-26T22:42:34.268Z,99313.50
2023-04-26T22:45:36.591Z,99326.69
2023-04-26T22:48:38.821Z,99322.75
2023-04-26T22:51:42.742Z,99323.81
2023-04-26T22:54:46.521Z,99313.81
2023-04-26T22:57:48.736Z,99323.00
2023-04-26T23:00:51.122Z,99327.03
2023-04-26T23:03:53.476Z,99327.88
2023-04-26T23:06:55.869Z,99331.69
2023-04-26T23:09:58.165Z,99328.09
2023-04-26T23:13:00.421Z,99334.91
2023-04-26T23:16:04.556Z,99333.19
2023-04-26T23:19:06.779Z,99343.16
2023-04-26T23:22:09.126Z,99337.59
2023-04-26T23:25:11.563Z,99334.97
2023-04-26T23:28:13.838Z,99348.00
2023-04-26T23:31:16.323Z,99348.44
2023-04-26T23:34:18.775Z,99347.91
2023-04-26T23:37:21.351Z,99350.63
2023-04-26T23:40:23.540Z,99357.84
2023-04-26T23:43:25.740Z,99358.78
2023-04-26T23:46:28.103Z,99354.84
2023-04-26T23:49:30.439Z,99355.53
2023-04-26T23:52:32.694Z,99354.34
2023-04-26T23:55:35.270Z,99353.34
2023-04-26T23:58:37.567Z,99356.19
